createdAt,value
2019-04-22T00:00:34.565Z,15.18
2019-04-22T00:05:55.157Z,14.90
2019-04-22T00:11:13.063Z,15.25
2019-04-22T00:16:19.165Z,14.36
2019-04-22T00:26:37.433Z,13.56
2019-04-22T00:31:41.682Z,14.49
2019-04-22T00:36:42.182Z,19.42
2019-04-22T00:47:14.656Z,17.46
2019-04-22T00:52:09.317Z,16.00
2019-04-22T00:57:21.704Z,14.45
2019-04-22T01:02:34.764Z,15.23
2019-04-22T01:07:35.609Z,15.07
2019-04-22T01:12:44.056Z,15.06
2019-04-22T01:17:57.620Z,13.07
2019-04-22T01:23:01.945Z,13.11
2019-04-22T01:28:01.286Z,13.62
2019-04-22T01:33:05.707Z,14.25
2019-04-22T01:38:18.875Z,14.31
2019-04-22T01:43:50.380Z,14.15
2019-04-22T01:48:47.694Z,14.33
2019-04-22T01:58:57.426Z,14.05
2019-04-22T02:04:13.871Z,13.42
2019-04-22T02:14:26.894Z,14.59
2019-04-22T02:19:37.616Z,14.78
2019-04-22T02:24:47.418Z,19.29
2019-04-22T02:29:43.468Z,13.86
2019-04-22T02:34:46.027Z,14.62
2019-04-22T02:40:05.742Z,14.36
2019-04-22T02:44:58.494Z,15.20
2019-04-22T02:55:27.670Z,13.41
2019-04-22T03:00:40.271Z,13.76
2019-04-22T03:05:40.109Z,14.40
2019-04-22T03:10:49.372Z,14.33
2019-04-22T03:16:07.833Z,15.93
2019-04-22T03:20:58.213Z,16.51
2019-04-22T03:31:55.147Z,16.12
2019-04-22T03:37:03.841Z,16.41
2019-04-22T03:41:57.299Z,18.26
2019-04-22T03:47:02.313Z,17.10
2019-04-22T03:52:05.627Z,17.98
2019-04-22T03:57:33.780Z,17.68
2019-04-22T04:07:32.448Z,17.09
2019-04-22T04:12:25.873Z,17.89
2019-04-22T04:17:50.522Z,17.36
2019-04-22T04:27:53.788Z,18.19
2019-04-22T04:32:54.624Z,18.80
2019-04-22T04:37:56.088Z,21.89
2019-04-22T04:43:19.001Z,19.65
2019-04-22T04:48:32.287Z,18.99
2019-04-22T04:53:20.383Z,20.73
2019-04-22T05:03:57.307Z,20.63
2019-04-22T05:09:11.389Z,20.11
2019-04-22T05:13:57.835Z,17.31
2019-04-22T05:19:15.804Z,16.65
2019-04-22T05:24:24.291Z,17.61
2019-04-22T05:29:34.724Z,15.68
2019-04-22T05:34:36.173Z,15.07
2019-04-22T05:39:42.479Z,14.89
2019-04-22T05:44:50.000Z,19.02
2019-04-22T05:49:54.650Z,17.05
2019-04-22T06:00:18.255Z,15.08
2019-04-22T06:05:24.752Z,14.98
2019-04-22T06:10:37.640Z,15.38
2019-04-22T06:15:36.365Z,13.37
2019-04-22T06:20:53.845Z,14.33
2019-04-22T06:25:57.564Z,10.84
2019-04-22T06:30:57.362Z,11.08
2019-04-22T06:36:08.121Z,11.05
2019-04-22T06:41:25.181Z,8.97
2019-04-22T06:46:27.449Z,8.83
2019-04-22T06:51:33.097Z,8.58
2019-04-22T06:56:42.734Z,9.14
2019-04-22T07:01:52.351Z,6.37
2019-04-22T07:12:02.206Z,6.23
2019-04-22T07:17:15.609Z,7.24
2019-04-22T07:22:21.574Z,7.32
2019-04-22T07:27:30.665Z,7.68
2019-04-22T07:32:59.180Z,8.36
2019-04-22T07:37:37.109Z,6.68
2019-04-22T07:42:59.217Z,5.63
2019-04-22T07:53:11.744Z,5.87
2019-04-22T07:58:21.138Z,5.98
2019-04-22T08:03:24.517Z,6.87
2019-04-22T08:08:25.829Z,5.44
2019-04-22T08:13:43.864Z,6.38
2019-04-22T08:18:47.511Z,6.43
2019-04-22T08:23:50.571Z,8.44
2019-04-22T08:28:59.051Z,6.35
2019-04-22T08:39:25.337Z,6.02
2019-04-22T08:44:53.491Z,5.05
2019-04-22T08:49:44.476Z,5.38
2019-04-22T08:59:56.278Z,6.18
2019-04-22T09:04:56.003Z,4.55
2019-04-22T09:10:14.878Z,5.41
2019-04-22T09:15:26.650Z,5.82
2019-04-22T09:20:20.412Z,6.76
2019-04-22T09:25:29.675Z,6.03
2019-04-22T09:30:52.406Z,6.06
2019-04-22T09:41:00.660Z,9.64
2019-04-22T09:46:08.930Z,6.87
2019-04-22T09:51:21.655Z,6.62
2019-04-22T10:06:33.330Z,10.78
2019-04-22T10:16:50.735Z,8.45
2019-04-22T10:27:16.204Z,7.78
2019-04-22T10:37:11.832Z,6.19
2019-04-22T10:42:17.466Z,5.99
2019-04-22T10:47:25.753Z,5.78
2019-04-22T10:52:33.357Z,7.60
2019-04-22T10:57:42.501Z,6.54
2019-04-22T11:02:50.984Z,5.63
2019-04-22T11:08:04.879Z,5.47
2019-04-22T11:13:10.778Z,6.40
2019-04-22T11:18:17.803Z,5.66
2019-04-22T11:23:26.799Z,5.18
2019-04-22T11:28:34.055Z,5.47
2019-04-22T11:33:42.895Z,6.80
2019-04-22T11:38:57.951Z,7.15
2019-04-22T11:44:01.184Z,6.55
2019-04-22T11:49:08.004Z,4.58
2019-04-22T11:54:16.986Z,6.74
2019-04-22T11:59:25.076Z,13.21
2019-04-22T12:04:33.962Z,4.66
2019-04-22T12:09:41.969Z,7.25
2019-04-22T12:14:52.259Z,6.53
2019-04-22T12:20:04.780Z,8.65
2019-04-22T12:25:08.600Z,5.77
2019-04-22T12:30:17.404Z,14.10
2019-04-22T12:35:26.311Z,7.32
2019-04-22T12:40:44.757Z,10.70
2019-04-22T12:45:44.767Z,4.91
2019-04-22T12:50:54.191Z,6.08
2019-04-22T12:56:01.225Z,5.85
2019-04-22T13:01:08.947Z,5.40
2019-04-22T13:06:17.671Z,4.64
2019-04-22T13:11:32.246Z,6.54
2019-04-22T13:16:27.055Z,4.78
2019-04-22T13:21:36.517Z,5.55
2019-04-22T13:26:48.831Z,5.70
2019-04-22T13:31:47.002Z,5.70
2019-04-22T13:36:56.719Z,6.38
2019-04-22T13:42:05.956Z,4.64
2019-04-22T13:47:29.804Z,5.33
2019-04-22T13:57:47.173Z,3.96
2019-04-22T14:02:30.678Z,5.60
2019-04-22T14:07:38.854Z,4.22
2019-04-22T14:12:46.764Z,4.35
2019-04-22T14:17:54.720Z,4.60
2019-04-22T14:23:04.772Z,4.19
2019-04-22T14:28:16.963Z,4.30
2019-04-22T14:33:20.316Z,5.57
2019-04-22T14:38:27.956Z,3.96
2019-04-22T14:44:31.496Z,5.67
2019-04-22T14:49:06.489Z,4.73
2019-04-22T14:54:10.106Z,4.50
2019-04-22T14:59:01.191Z,3.11
2019-04-22T15:04:09.313Z,5.42
2019-04-22T15:09:18.004Z,7.06
2019-04-22T15:14:27.692Z,6.79
2019-04-22T15:19:35.991Z,5.00
2019-04-22T15:24:45.065Z,7.04
2019-04-22T15:29:53.769Z,4.59
2019-04-22T15:35:01.960Z,7.58
2019-04-22T15:40:11.171Z,5.98
2019-04-22T15:45:20.060Z,8.31
2019-04-22T15:50:26.768Z,11.00
2019-04-22T15:55:36.715Z,6.84
2019-04-22T16:00:54.119Z,16.64
2019-04-22T16:05:52.209Z,9.60
2019-04-22T16:11:00.157Z,10.99
2019-04-22T16:16:10.240Z,5.15
2019-04-22T16:21:27.691Z,6.07
2019-04-22T16:26:26.363Z,4.80
2019-04-22T16:31:33.638Z,4.65
2019-04-22T16:36:41.142Z,4.41
2019-04-22T16:41:50.810Z,5.83
2019-04-22T16:46:59.457Z,6.85
2019-04-22T16:52:06.144Z,6.40
2019-04-22T16:57:15.786Z,5.85
2019-04-22T17:02:24.481Z,7.88
2019-04-22T17:07:31.884Z,11.49
2019-04-22T17:12:48.844Z,6.30
2019-04-22T17:17:49.481Z,5.66
2019-04-22T17:22:57.646Z,5.25
2019-04-22T17:28:05.703Z,5.94
2019-04-22T17:33:12.752Z,7.26
2019-04-22T17:38:30.154Z,27.50
2019-04-22T17:43:54.383Z,27.72
2019-04-22T17:49:02.730Z,12.14
2019-04-22T17:54:06.773Z,12.70
2019-04-22T17:59:09.687Z,6.94
2019-04-22T18:04:04.910Z,6.43
2019-04-22T18:14:44.961Z,6.19
2019-04-22T18:19:43.057Z,5.88
2019-04-22T18:30:02.211Z,6.15
2019-04-22T18:35:11.803Z,4.38
2019-04-22T18:40:14.594Z,3.34
2019-04-22T18:45:39.626Z,2.78
2019-04-22T18:50:47.549Z,3.84
2019-04-22T18:55:38.734Z,3.32
2019-04-22T19:00:34.211Z,3.64
2019-04-22T19:06:03.883Z,2.77
2019-04-22T19:11:12.640Z,3.21
2019-04-22T19:16:24.393Z,4.63
2019-04-22T19:21:23.472Z,3.87
2019-04-22T19:26:47.825Z,4.60
2019-04-22T19:31:34.743Z,3.46
2019-04-22T19:36:54.443Z,3.03
2019-04-22T19:41:55.771Z,5.14
2019-04-22T19:52:12.583Z,4.88
2019-04-22T19:57:17.426Z,3.58
2019-04-22T20:02:33.172Z,3.95
2019-04-22T20:07:31.754Z,2.97
2019-04-22T20:12:39.850Z,4.09
2019-04-22T20:18:14.636Z,4.58
2019-04-22T20:23:01.061Z,5.29
2019-04-22T20:28:16.235Z,3.69
2019-04-22T20:33:26.751Z,4.23
2019-04-22T20:38:32.624Z,3.52
2019-04-22T20:43:36.826Z,5.89
2019-04-22T20:48:49.152Z,3.45
2019-04-22T20:53:57.801Z,2.86
2019-04-22T20:59:02.345Z,4.52
2019-04-22T21:03:57.421Z,3.91
2019-04-22T21:09:22.602Z,4.26
2019-04-22T21:14:23.231Z,4.92
2019-04-22T21:19:41.770Z,5.42
2019-04-22T21:29:48.409Z,6.35
2019-04-22T21:35:06.606Z,3.52
2019-04-22T21:40:10.618Z,5.10
2019-04-22T21:45:15.175Z,2.99
2019-04-22T21:50:35.636Z,5.63
2019-04-22T21:55:29.737Z,4.03
2019-04-22T22:00:54.100Z,4.77
2019-04-22T22:05:46.315Z,4.40
2019-04-22T22:11:03.659Z,3.46
2019-04-22T22:16:06.677Z,4.42
2019-04-22T22:21:34.478Z,3.70
2019-04-22T22:26:26.482Z,5.11
2019-04-22T22:31:41.294Z,3.30
2019-04-22T22:36:40.916Z,2.62
2019-04-22T22:41:24.013Z,3.52
2019-04-22T22:46:40.174Z,5.18
2019-04-22T22:52:26.266Z,5.40
2019-04-22T23:02:15.453Z,4.13
2019-04-22T23:07:28.755Z,5.10
2019-04-22T23:12:43.821Z,3.41
2019-04-22T23:17:26.110Z,4.64
2019-04-22T23:22:48.504Z,5.46
2019-04-22T23:27:55.301Z,4.12
2019-04-22T23:33:03.499Z,3.13
2019-04-22T23:38:07.382Z,3.92
2019-04-22T23:48:17.980Z,4.61
2019-04-22T23:58:52.400Z,4.48
